createdAt,value
2018-05-17T00:00:06.823Z,13.43
2018-05-17T00:01:12.333Z,13.36
2018-05-17T00:02:17.849Z,13.38
2018-05-17T00:03:23.366Z,13.33
2018-05-17T00:04:28.876Z,13.37
2018-05-17T00:05:34.397Z,13.21
2018-05-17T00:06:39.905Z,13.29
2018-05-17T00:07:45.422Z,13.21
2018-05-17T00:08:50.929Z,13.25
2018-05-17T00:09:56.442Z,13.30
2018-05-17T00:11:01.955Z,13.33
2018-05-17T00:12:07.499Z,13.27
2018-05-17T00:13:12.984Z,13.32
2018-05-17T00:14:18.633Z,13.22
2018-05-17T00:15:24.005Z,13.21
2018-05-17T00:16:29.523Z,13.20
2018-05-17T00:17:35.131Z,13.27
2018-05-17T00:18:40.552Z,13.21
2018-05-17T00:19:46.116Z,13.30
2018-05-17T00:20:51.574Z,13.18
2018-05-17T00:21:57.180Z,13.20
2018-05-17T00:23:02.610Z,13.14
2018-05-17T00:24:08.108Z,13.09
2018-05-17T00:25:13.627Z,13.12
2018-05-17T00:26:19.138Z,13.17
2018-05-17T00:27:24.650Z,13.11
2018-05-17T00:28:30.167Z,13.11
2018-05-17T00:29:35.676Z,13.07
2018-05-17T00:30:41.189Z,13.12
2018-05-17T00:31:46.702Z,13.04
2018-05-17T00:32:52.214Z,13.15
2018-05-17T00:33:57.731Z,13.09
2018-05-17T00:35:03.243Z,13.12
2018-05-17T00:36:08.777Z,13.09
2018-05-17T00:37:14.268Z,13.00
2018-05-17T00:38:19.789Z,12.99
2018-05-17T00:39:25.299Z,12.99
2018-05-17T00:40:30.808Z,12.99
2018-05-17T00:41:36.325Z,12.88
2018-05-17T00:42:41.838Z,12.88
2018-05-17T00:43:47.346Z,12.88
2018-05-17T00:44:52.863Z,12.84
2018-05-17T00:45:58.375Z,12.87
2018-05-17T00:47:03.897Z,12.84
2018-05-17T00:48:09.400Z,12.87
2018-05-17T00:49:14.910Z,12.93
2018-05-17T00:50:20.425Z,12.88
2018-05-17T00:51:25.942Z,12.85
2018-05-17T00:52:31.450Z,12.81
2018-05-17T00:53:36.965Z,12.79
2018-05-17T00:54:42.475Z,12.77
2018-05-17T00:55:47.986Z,12.71
2018-05-17T00:56:53.514Z,12.75
2018-05-17T00:57:59.024Z,12.69
2018-05-17T00:59:04.525Z,12.74
2018-05-17T01:00:10.089Z,12.60
2018-05-17T01:01:15.549Z,12.64
2018-05-17T01:02:21.080Z,12.52
2018-05-17T01:03:26.586Z,12.57
2018-05-17T01:04:32.088Z,12.44
2018-05-17T01:05:37.612Z,12.42
2018-05-17T01:06:43.115Z,12.44
2018-05-17T01:07:48.632Z,12.41
2018-05-17T01:08:54.145Z,12.38
2018-05-17T01:09:59.649Z,12.45
2018-05-17T01:11:05.165Z,12.49
2018-05-17T01:12:10.758Z,12.48
2018-05-17T01:13:16.188Z,12.39
2018-05-17T01:14:21.708Z,12.56
2018-05-17T01:15:27.217Z,12.46
2018-05-17T01:16:32.726Z,12.42
2018-05-17T01:17:38.243Z,12.31
2018-05-17T01:18:43.753Z,12.26
2018-05-17T01:19:49.262Z,12.37
2018-05-17T01:20:54.782Z,12.41
2018-05-17T01:22:00.290Z,12.49
2018-05-17T01:23:05.805Z,12.48
2018-05-17T01:24:11.323Z,12.38
2018-05-17T01:25:16.828Z,12.31
2018-05-17T01:26:22.346Z,12.44
2018-05-17T01:27:27.851Z,12.41
2018-05-17T01:28:33.366Z,12.30
2018-05-17T01:29:38.880Z,12.27
2018-05-17T01:30:44.393Z,12.38
2018-05-17T01:31:49.904Z,12.33
2018-05-17T01:32:55.415Z,12.31
2018-05-17T01:34:00.927Z,12.38
2018-05-17T01:35:06.481Z,12.39
2018-05-17T01:36:12.039Z,12.31
2018-05-17T01:37:17.465Z,12.26
2018-05-17T01:38:22.976Z,12.41
2018-05-17T01:39:28.493Z,12.37
2018-05-17T01:40:34.004Z,12.34
2018-05-17T01:41:39.513Z,12.46
2018-05-17T01:42:45.027Z,12.41
2018-05-17T01:43:50.540Z,12.44
2018-05-17T01:44:56.061Z,12.51
2018-05-17T01:46:01.562Z,12.52
2018-05-17T01:47:07.080Z,12.57
2018-05-17T01:48:12.602Z,12.54
2018-05-17T01:49:18.103Z,12.49
2018-05-17T01:50:23.614Z,12.41
2018-05-17T01:51:29.133Z,12.45
2018-05-17T01:52:34.639Z,12.31
2018-05-17T01:53:40.225Z,12.41
2018-05-17T01:54:45.667Z,12.41
2018-05-17T01:55:51.174Z,12.38
2018-05-17T01:56:56.689Z,12.27
2018-05-17T01:58:02.203Z,12.34
2018-05-17T01:59:07.712Z,12.41
2018-05-17T02:00:13.317Z,12.34
2018-05-17T02:01:18.751Z,12.27
2018-05-17T02:02:24.258Z,12.49
2018-05-17T02:03:29.764Z,12.39
2018-05-17T02:04:35.285Z,12.49
2018-05-17T02:05:40.927Z,12.51
2018-05-17T02:06:46.301Z,12.48
2018-05-17T02:07:51.874Z,12.51
2018-05-17T02:08:57.366Z,12.51
2018-05-17T02:10:02.838Z,12.56
2018-05-17T02:11:08.408Z,12.59
2018-05-17T02:12:13.867Z,12.49
2018-05-17T02:13:19.376Z,12.60
2018-05-17T02:14:24.888Z,12.64
2018-05-17T02:15:30.402Z,12.62
2018-05-17T02:16:35.927Z,12.59
2018-05-17T02:17:41.431Z,12.74
2018-05-17T02:18:46.947Z,12.66
2018-05-17T02:19:52.453Z,12.62
2018-05-17T02:20:57.978Z,12.63
2018-05-17T02:22:03.476Z,12.56
2018-05-17T02:23:08.987Z,12.57
2018-05-17T02:24:14.501Z,12.62
2018-05-17T02:25:20.018Z,12.60
2018-05-17T02:26:25.524Z,12.57
2018-05-17T02:27:31.038Z,12.59
2018-05-17T02:28:36.550Z,12.52
2018-05-17T02:29:42.064Z,12.62
2018-05-17T02:30:47.580Z,12.57
2018-05-17T02:31:53.090Z,12.57
2018-05-17T02:32:58.606Z,12.64
2018-05-17T02:34:04.119Z,12.59
2018-05-17T02:35:09.630Z,12.60
2018-05-17T02:36:15.143Z,12.39
2018-05-17T02:37:20.658Z,12.38
2018-05-17T02:38:26.167Z,12.26
2018-05-17T02:39:31.680Z,12.33
2018-05-17T02:40:37.208Z,12.38
2018-05-17T02:41:42.729Z,12.30
2018-05-17T02:42:48.224Z,12.27
2018-05-17T02:43:53.753Z,12.27
2018-05-17T02:44:59.239Z,12.27
2018-05-17T02:46:04.849Z,12.27
2018-05-17T02:47:10.269Z,12.26
2018-05-17T02:48:15.780Z,12.23
2018-05-17T02:49:21.354Z,12.15
2018-05-17T02:50:26.807Z,12.12
2018-05-17T02:51:32.320Z,12.08
2018-05-17T02:52:37.827Z,12.12
2018-05-17T02:53:43.345Z,12.13
2018-05-17T02:54:48.853Z,11.93
2018-05-17T02:55:54.362Z,12.01
2018-05-17T02:56:59.881Z,12.09
2018-05-17T02:58:05.392Z,12.05
2018-05-17T02:59:10.902Z,11.93
2018-05-17T03:00:16.414Z,11.90
2018-05-17T03:01:21.930Z,11.87
2018-05-17T03:02:27.442Z,11.89
2018-05-17T03:03:32.947Z,12.04
2018-05-17T03:04:38.496Z,12.05
2018-05-17T03:05:43.973Z,12.09
2018-05-17T03:06:49.486Z,11.96
2018-05-17T03:07:54.998Z,12.02
2018-05-17T03:09:00.515Z,12.04
2018-05-17T03:10:06.022Z,11.90
2018-05-17T03:11:11.534Z,11.90
2018-05-17T03:12:17.052Z,12.02
2018-05-17T03:13:22.560Z,11.93
2018-05-17T03:14:28.070Z,11.93
2018-05-17T03:15:33.610Z,11.89
2018-05-17T03:16:39.119Z,11.86
2018-05-17T03:17:44.607Z,11.83
2018-05-17T03:18:50.256Z,11.86
2018-05-17T03:19:55.630Z,11.82
2018-05-17T03:21:01.145Z,11.90
2018-05-17T03:22:06.764Z,11.80
2018-05-17T03:23:12.168Z,11.71
2018-05-17T03:24:17.736Z,11.87
2018-05-17T03:25:23.190Z,11.86
2018-05-17T03:26:28.704Z,11.85
2018-05-17T03:27:34.215Z,11.85
2018-05-17T03:28:39.739Z,11.80
2018-05-17T03:29:45.263Z,11.71
2018-05-17T03:30:50.755Z,11.70
2018-05-17T03:31:56.268Z,11.68
2018-05-17T03:33:01.778Z,11.64
2018-05-17T03:34:07.301Z,11.57
2018-05-17T03:35:12.802Z,11.68
2018-05-17T03:36:18.318Z,11.67
2018-05-17T03:37:23.826Z,11.57
2018-05-17T03:38:29.337Z,11.65
2018-05-17T03:39:34.848Z,11.70
2018-05-17T03:40:40.365Z,11.71
2018-05-17T03:41:45.878Z,11.59
2018-05-17T03:42:51.385Z,11.52
2018-05-17T03:43:56.896Z,11.49
2018-05-17T03:45:02.419Z,11.54
2018-05-17T03:46:07.919Z,11.59
2018-05-17T03:47:13.436Z,11.56
2018-05-17T03:48:18.947Z,11.53
2018-05-17T03:49:24.456Z,11.52
2018-05-17T03:50:29.983Z,11.49
2018-05-17T03:51:35.481Z,11.50
2018-05-17T03:52:40.993Z,11.53
2018-05-17T03:53:46.512Z,11.47
2018-05-17T03:54:52.021Z,11.46
2018-05-17T03:55:57.538Z,11.56
2018-05-17T03:57:03.048Z,11.52
2018-05-17T03:58:08.553Z,11.43
2018-05-17T03:59:14.063Z,11.50
2018-05-17T04:00:19.602Z,11.52
2018-05-17T04:01:25.125Z,11.53
2018-05-17T04:02:30.637Z,11.59
2018-05-17T04:03:36.120Z,11.54
2018-05-17T04:04:41.699Z,11.54
2018-05-17T04:05:47.138Z,11.53
2018-05-17T04:06:52.653Z,11.52
2018-05-17T04:07:58.167Z,11.59
2018-05-17T04:09:03.673Z,11.50
2018-05-17T04:10:09.191Z,11.57
2018-05-17T04:11:14.693Z,11.52
2018-05-17T04:12:20.209Z,11.52
2018-05-17T04:13:25.723Z,11.56
2018-05-17T04:14:31.228Z,11.50
2018-05-17T04:15:36.749Z,11.53
2018-05-17T04:16:42.261Z,11.50
2018-05-17T04:17:47.773Z,11.61
2018-05-17T04:18:53.279Z,11.54
2018-05-17T04:19:58.785Z,11.52
2018-05-17T04:21:04.303Z,11.54
2018-05-17T04:22:09.814Z,11.49
2018-05-17T04:23:15.322Z,11.54
2018-05-17T04:24:20.832Z,11.53
2018-05-17T04:25:26.353Z,11.53
2018-05-17T04:26:31.860Z,11.53
2018-05-17T04:27:37.367Z,11.57
2018-05-17T04:28:42.882Z,11.54
2018-05-17T04:29:48.396Z,11.65
2018-05-17T04:30:53.905Z,11.62
2018-05-17T04:31:59.415Z,11.67
2018-05-17T04:33:04.932Z,11.65
2018-05-17T04:34:10.446Z,11.62
2018-05-17T04:35:16.098Z,11.61
2018-05-17T04:36:21.466Z,11.61
2018-05-17T04:37:27.015Z,11.72
2018-05-17T04:38:32.488Z,11.65
2018-05-17T04:39:38.026Z,11.70
2018-05-17T04:40:43.525Z,11.70
2018-05-17T04:41:49.034Z,11.80
2018-05-17T04:42:54.536Z,11.87
2018-05-17T04:44:00.050Z,11.86
2018-05-17T04:45:05.558Z,11.87
2018-05-17T04:46:11.077Z,11.87
2018-05-17T04:47:16.587Z,11.85
2018-05-17T04:48:22.095Z,11.86
2018-05-17T04:49:27.604Z,11.86
2018-05-17T04:50:33.118Z,11.83
2018-05-17T04:51:38.632Z,11.83
2018-05-17T04:52:44.149Z,11.85
2018-05-17T04:53:49.663Z,11.87
2018-05-17T04:54:55.169Z,11.85
2018-05-17T04:56:00.683Z,11.85
2018-05-17T04:57:06.185Z,11.85
2018-05-17T04:58:11.710Z,11.86
2018-05-17T04:59:17.211Z,11.83
2018-05-17T05:00:22.725Z,11.86
2018-05-17T05:01:28.234Z,11.86
2018-05-17T05:02:33.775Z,11.87
2018-05-17T05:03:39.258Z,11.90
2018-05-17T05:04:44.771Z,11.89
2018-05-17T05:05:50.285Z,12.02
2018-05-17T05:06:55.803Z,11.89
2018-05-17T05:08:01.306Z,11.94
2018-05-17T05:09:06.820Z,11.99
2018-05-17T05:10:12.336Z,12.04
2018-05-17T05:11:17.843Z,12.05
2018-05-17T05:12:23.366Z,12.05
2018-05-17T05:13:28.869Z,11.97
2018-05-17T05:14:34.378Z,11.97
2018-05-17T05:15:40.028Z,12.02
2018-05-17T05:16:45.411Z,12.04
2018-05-17T05:17:50.999Z,11.99
2018-05-17T05:18:56.433Z,12.02
2018-05-17T05:20:02.057Z,12.01
2018-05-17T05:21:07.457Z,12.09
2018-05-17T05:22:12.964Z,12.12
2018-05-17T05:23:18.545Z,12.06
2018-05-17T05:24:23.989Z,12.08
2018-05-17T05:25:29.508Z,12.08
2018-05-17T05:26:35.021Z,12.11
2018-05-17T05:27:40.522Z,12.09
2018-05-17T05:28:46.036Z,12.11
2018-05-17T05:29:51.548Z,12.08
2018-05-17T05:30:57.062Z,12.15
2018-05-17T05:32:02.581Z,12.12
2018-05-17T05:33:08.109Z,12.19
2018-05-17T05:34:13.597Z,12.12
2018-05-17T05:35:19.105Z,12.15
2018-05-17T05:36:24.626Z,12.13
2018-05-17T05:37:30.212Z,12.21
2018-05-17T05:38:35.650Z,12.19
2018-05-17T05:39:41.160Z,12.16
2018-05-17T05:40:46.676Z,12.26
2018-05-17T05:41:52.189Z,12.19
2018-05-17T05:42:57.696Z,12.20
2018-05-17T05:44:03.212Z,12.16
2018-05-17T05:45:08.722Z,12.13
2018-05-17T05:46:14.233Z,12.21
2018-05-17T05:47:19.744Z,12.23
2018-05-17T05:48:25.263Z,12.19
2018-05-17T05:49:30.838Z,12.19
2018-05-17T05:50:36.284Z,12.26
2018-05-17T05:51:41.789Z,12.16
2018-05-17T05:52:47.302Z,12.23
2018-05-17T05:53:52.903Z,12.16
2018-05-17T05:54:58.328Z,12.19
2018-05-17T05:56:03.902Z,12.20
2018-05-17T05:57:09.347Z,12.20
2018-05-17T05:58:14.885Z,12.11
2018-05-17T05:59:20.380Z,12.06
2018-05-17T06:00:25.887Z,12.08
2018-05-17T06:01:31.404Z,12.01
2018-05-17T06:02:36.906Z,12.08
2018-05-17T06:03:42.424Z,12.06
2018-05-17T06:04:47.935Z,12.13
2018-05-17T06:05:53.446Z,12.19
2018-05-17T06:06:58.957Z,12.09
2018-05-17T06:08:04.466Z,12.12
2018-05-17T06:09:09.983Z,12.20
2018-05-17T06:10:15.499Z,12.19
2018-05-17T06:11:21.014Z,12.23
2018-05-17T06:12:26.519Z,12.26
2018-05-17T06:13:32.026Z,12.27
2018-05-17T06:14:37.542Z,12.33
2018-05-17T06:15:43.061Z,12.24
2018-05-17T06:16:48.566Z,12.27
2018-05-17T06:17:54.089Z,12.29
2018-05-17T06:18:59.599Z,12.27
2018-05-17T06:20:05.105Z,12.38
2018-05-17T06:21:10.622Z,12.29
2018-05-17T06:22:16.126Z,12.27
2018-05-17T06:23:21.639Z,12.26
2018-05-17T06:24:27.159Z,12.31
2018-05-17T06:25:32.665Z,12.27
2018-05-17T06:26:38.173Z,12.29
2018-05-17T06:27:43.686Z,12.29
2018-05-17T06:28:49.197Z,12.31
2018-05-17T06:29:54.708Z,12.38
2018-05-17T06:31:00.229Z,12.41
2018-05-17T06:32:05.731Z,12.34
2018-05-17T06:33:11.244Z,12.31
2018-05-17T06:34:16.764Z,12.30
2018-05-17T06:35:22.269Z,12.37
2018-05-17T06:36:27.794Z,12.34
2018-05-17T06:37:33.304Z,12.33
2018-05-17T06:38:38.808Z,12.45
2018-05-17T06:39:44.329Z,12.45
2018-05-17T06:40:49.844Z,12.42
2018-05-17T06:41:55.346Z,12.42
2018-05-17T06:43:00.858Z,12.41
2018-05-17T06:44:06.385Z,12.38
2018-05-17T06:45:11.881Z,12.38
2018-05-17T06:46:17.394Z,12.45
2018-05-17T06:47:22.912Z,12.51
2018-05-17T06:48:28.426Z,12.44
2018-05-17T06:49:33.928Z,12.45
2018-05-17T06:50:39.443Z,12.38
2018-05-17T06:51:44.951Z,12.38
2018-05-17T06:52:50.476Z,12.52
2018-05-17T06:53:55.986Z,12.54
2018-05-17T06:55:01.488Z,12.52
2018-05-17T06:56:06.999Z,12.62
2018-05-17T06:57:12.529Z,12.60
2018-05-17T06:58:18.024Z,12.70
2018-05-17T06:59:23.550Z,12.71
2018-05-17T07:00:29.073Z,12.82
2018-05-17T07:01:34.564Z,12.89
2018-05-17T07:02:40.078Z,12.89
2018-05-17T07:03:45.679Z,12.95
2018-05-17T07:04:51.125Z,12.93
2018-05-17T07:05:56.615Z,13.04
2018-05-17T07:07:02.183Z,12.96
2018-05-17T07:08:07.645Z,13.00
2018-05-17T07:09:13.150Z,13.04
2018-05-17T07:10:18.657Z,13.12
2018-05-17T07:11:24.185Z,13.03
2018-05-17T07:12:29.697Z,13.02
2018-05-17T07:13:35.196Z,13.09
2018-05-17T07:14:40.718Z,13.03
2018-05-17T07:15:46.225Z,12.92
2018-05-17T07:16:51.744Z,12.95
2018-05-17T07:17:57.332Z,12.95
2018-05-17T07:19:02.771Z,12.92
2018-05-17T07:20:08.277Z,12.97
2018-05-17T07:21:13.790Z,12.97
2018-05-17T07:22:19.309Z,12.93
2018-05-17T07:23:24.822Z,12.93
2018-05-17T07:24:30.333Z,13.00
2018-05-17T07:25:35.859Z,13.03
2018-05-17T07:26:41.345Z,13.07
2018-05-17T07:27:46.863Z,13.06
2018-05-17T07:28:52.372Z,13.21
2018-05-17T07:29:58.011Z,13.21
2018-05-17T07:31:03.396Z,13.17
2018-05-17T07:32:08.916Z,13.20
2018-05-17T07:33:14.419Z,13.20
2018-05-17T07:34:19.934Z,13.32
2018-05-17T07:35:25.449Z,13.32
2018-05-17T07:36:31.063Z,13.30
2018-05-17T07:37:36.472Z,13.32
2018-05-17T07:38:41.982Z,13.33
2018-05-17T07:39:47.494Z,13.37
2018-05-17T07:40:53.010Z,13.38
2018-05-17T07:41:58.581Z,13.38
2018-05-17T07:43:04.033Z,13.38
2018-05-17T07:44:09.558Z,13.41
2018-05-17T07:45:15.066Z,13.47
2018-05-17T07:46:20.579Z,13.47
2018-05-17T07:47:26.088Z,13.51
2018-05-17T07:48:31.600Z,13.61
2018-05-17T07:49:37.117Z,13.67
2018-05-17T07:50:42.622Z,13.84
2018-05-17T07:51:48.134Z,13.76
2018-05-17T07:52:53.647Z,13.87
2018-05-17T07:53:59.172Z,13.79
2018-05-17T07:55:04.676Z,13.83
2018-05-17T07:56:10.188Z,13.92
2018-05-17T07:57:15.701Z,13.89
2018-05-17T07:58:21.211Z,14.04
2018-05-17T07:59:26.721Z,14.01
2018-05-17T08:00:32.249Z,14.16
2018-05-17T08:01:37.757Z,14.13
2018-05-17T08:02:43.263Z,14.21
2018-05-17T08:03:48.772Z,14.17
2018-05-17T08:04:54.293Z,14.13
2018-05-17T08:05:59.808Z,14.02
2018-05-17T08:07:05.323Z,13.99
2018-05-17T08:08:10.827Z,14.09
2018-05-17T08:09:16.367Z,13.99
2018-05-17T08:10:21.854Z,13.99
2018-05-17T08:11:27.367Z,14.06
2018-05-17T08:12:32.882Z,14.14
2018-05-17T08:13:38.404Z,14.10
2018-05-17T08:14:43.905Z,14.20
2018-05-17T08:15:49.426Z,14.16
2018-05-17T08:16:54.962Z,14.17
2018-05-17T08:18:00.537Z,14.20
2018-05-17T08:19:05.957Z,14.09
2018-05-17T08:20:11.521Z,14.06
2018-05-17T08:21:17.002Z,14.14
2018-05-17T08:22:22.505Z,14.09
2018-05-17T08:23:28.020Z,14.07
2018-05-17T08:24:33.535Z,14.14
2018-05-17T08:25:39.047Z,14.10
2018-05-17T08:26:44.559Z,14.24
2018-05-17T08:27:50.071Z,14.21
2018-05-17T08:28:55.653Z,14.25
2018-05-17T08:30:01.094Z,14.20
2018-05-17T08:31:06.607Z,14.21
2018-05-17T08:32:12.116Z,14.12
2018-05-17T08:33:17.631Z,13.99
2018-05-17T08:34:23.144Z,14.10
2018-05-17T08:35:28.659Z,14.27
2018-05-17T08:36:34.331Z,14.19
2018-05-17T08:37:39.684Z,14.27
2018-05-17T08:38:45.201Z,14.34
2018-05-17T08:39:50.714Z,14.32
2018-05-17T08:40:56.223Z,14.29
2018-05-17T08:42:01.738Z,14.43
2018-05-17T08:43:07.253Z,14.37
2018-05-17T08:44:12.771Z,14.38
2018-05-17T08:45:18.274Z,14.39
2018-05-17T08:46:23.793Z,14.35
2018-05-17T08:47:29.307Z,14.35
2018-05-17T08:48:34.818Z,14.37
2018-05-17T08:49:40.352Z,14.57
2018-05-17T08:50:45.852Z,14.68
2018-05-17T08:51:51.357Z,14.65
2018-05-17T08:52:56.978Z,14.68
2018-05-17T08:54:02.384Z,14.74
2018-05-17T08:55:08.020Z,14.84
2018-05-17T08:56:13.425Z,14.88
2018-05-17T08:57:18.923Z,14.93
2018-05-17T08:58:24.447Z,14.87
2018-05-17T08:59:29.952Z,14.88
2018-05-17T09:00:35.471Z,14.94
2018-05-17T09:01:40.982Z,15.03
2018-05-17T09:02:46.497Z,14.98
2018-05-17T09:03:52.005Z,15.02
2018-05-17T09:04:57.522Z,15.06
2018-05-17T09:06:03.043Z,15.15
2018-05-17T09:07:08.546Z,15.17
2018-05-17T09:08:14.060Z,15.17
2018-05-17T09:09:19.569Z,15.17
2018-05-17T09:10:25.082Z,15.08
2018-05-17T09:11:30.599Z,15.05
2018-05-17T09:12:36.120Z,15.02
2018-05-17T09:13:41.708Z,14.95
2018-05-17T09:14:47.137Z,14.94
2018-05-17T09:15:52.652Z,14.94
2018-05-17T09:16:58.168Z,14.93
2018-05-17T09:18:03.692Z,14.98
2018-05-17T09:19:09.190Z,15.08
2018-05-17T09:20:14.807Z,15.06
2018-05-17T09:21:20.223Z,15.15
2018-05-17T09:22:25.733Z,15.20
2018-05-17T09:23:31.386Z,15.30
2018-05-17T09:24:36.776Z,15.42
2018-05-17T09:25:42.283Z,15.54
2018-05-17T09:26:47.793Z,15.54
2018-05-17T09:27:53.301Z,15.66
2018-05-17T09:28:58.829Z,15.67
2018-05-17T09:30:04.329Z,15.76
2018-05-17T09:31:09.851Z,15.74
2018-05-17T09:32:15.366Z,15.78
2018-05-17T09:33:21.121Z,15.85
2018-05-17T09:34:26.386Z,15.86
2018-05-17T09:35:31.904Z,15.97
2018-05-17T09:36:37.418Z,15.82
2018-05-17T09:37:42.929Z,15.85
2018-05-17T09:38:48.444Z,15.72
2018-05-17T09:39:53.957Z,15.76
2018-05-17T09:40:59.479Z,15.75
2018-05-17T09:42:04.992Z,15.82
2018-05-17T09:43:10.501Z,15.88
2018-05-17T09:44:16.020Z,15.85
2018-05-17T09:45:21.724Z,15.92
2018-05-17T09:46:27.046Z,15.89
2018-05-17T09:47:32.628Z,15.93
2018-05-17T09:48:38.077Z,15.97
2018-05-17T09:49:43.591Z,15.94
2018-05-17T09:50:49.104Z,16.01
2018-05-17T09:51:54.618Z,16.11
2018-05-17T09:53:00.137Z,16.06
2018-05-17T09:54:05.642Z,16.09
2018-05-17T09:55:11.169Z,16.11
2018-05-17T09:56:16.674Z,16.15
2018-05-17T09:57:22.184Z,16.23
2018-05-17T09:58:27.701Z,16.31
2018-05-17T09:59:33.215Z,16.34
2018-05-17T10:00:38.819Z,16.42
2018-05-17T10:01:44.240Z,16.56
2018-05-17T10:02:49.760Z,16.73
2018-05-17T10:03:55.359Z,16.73
2018-05-17T10:05:00.785Z,16.73
2018-05-17T10:06:06.307Z,16.80
2018-05-17T10:07:11.816Z,16.83
2018-05-17T10:08:17.329Z,16.85
2018-05-17T10:09:22.843Z,16.93
2018-05-17T10:10:28.356Z,17.03
2018-05-17T10:11:33.875Z,17.11
2018-05-17T10:12:39.409Z,17.17
2018-05-17T10:13:44.907Z,17.11
2018-05-17T10:14:50.416Z,16.96
2018-05-17T10:15:55.933Z,17.07
2018-05-17T10:17:01.457Z,17.07
2018-05-17T10:18:06.974Z,17.08
2018-05-17T10:19:12.488Z,17.15
2018-05-17T10:20:17.997Z,17.15
2018-05-17T10:21:23.519Z,17.17
2018-05-17T10:22:29.023Z,17.11
2018-05-17T10:23:34.538Z,17.14
2018-05-17T10:24:40.058Z,17.14
2018-05-17T10:25:45.575Z,17.14
2018-05-17T10:26:51.088Z,17.25
2018-05-17T10:27:56.597Z,17.22
2018-05-17T10:29:02.123Z,17.35
2018-05-17T10:30:07.631Z,17.40
2018-05-17T10:31:13.154Z,17.40
2018-05-17T10:32:18.657Z,17.44
2018-05-17T10:33:24.214Z,17.54
2018-05-17T10:34:29.701Z,17.55
2018-05-17T10:35:35.206Z,17.63
2018-05-17T10:36:40.720Z,17.63
2018-05-17T10:37:46.239Z,17.70
2018-05-17T10:38:51.755Z,17.73
2018-05-17T10:39:57.267Z,17.79
2018-05-17T10:41:02.780Z,17.73
2018-05-17T10:42:08.370Z,17.87
2018-05-17T10:43:13.814Z,17.91
2018-05-17T10:44:19.325Z,18.00
2018-05-17T10:45:24.843Z,17.88
2018-05-17T10:46:30.363Z,18.06
2018-05-17T10:47:35.877Z,18.06
2018-05-17T10:48:41.396Z,17.97
2018-05-17T10:49:46.907Z,18.04
2018-05-17T10:50:52.437Z,18.04
2018-05-17T10:51:57.939Z,17.97
2018-05-17T10:53:03.450Z,18.03
2018-05-17T10:54:08.971Z,17.88
2018-05-17T10:55:14.514Z,18.04
2018-05-17T10:56:20.000Z,18.03
2018-05-17T10:57:25.512Z,18.21
2018-05-17T10:58:31.024Z,18.13
2018-05-17T10:59:36.556Z,18.15
2018-05-17T11:00:42.057Z,18.15
2018-05-17T11:01:47.611Z,18.24
2018-05-17T11:02:53.097Z,18.27
2018-05-17T11:03:58.610Z,18.28
2018-05-17T11:05:04.124Z,18.31
2018-05-17T11:06:09.636Z,18.37
2018-05-17T11:07:15.155Z,18.37
2018-05-17T11:08:20.683Z,18.37
2018-05-17T11:09:26.188Z,18.44
2018-05-17T11:10:31.699Z,18.54
2018-05-17T11:11:37.216Z,18.55
2018-05-17T11:12:42.735Z,18.57
2018-05-17T11:13:48.247Z,18.55
2018-05-17T11:14:53.773Z,18.62
2018-05-17T11:15:59.285Z,18.62
2018-05-17T11:17:04.798Z,18.65
2018-05-17T11:18:10.316Z,18.72
2018-05-17T11:19:15.829Z,18.65
2018-05-17T11:20:21.345Z,18.72
2018-05-17T11:21:26.874Z,18.70
2018-05-17T11:22:32.376Z,18.46
2018-05-17T11:23:37.888Z,18.36
2018-05-17T11:24:43.421Z,18.24
2018-05-17T11:25:49.003Z,18.10
2018-05-17T11:26:54.438Z,18.13
2018-05-17T11:27:59.960Z,18.29
2018-05-17T11:29:05.628Z,18.40
2018-05-17T11:30:10.988Z,18.46
2018-05-17T11:31:16.507Z,18.49
2018-05-17T11:32:22.069Z,18.54
2018-05-17T11:33:27.555Z,18.55
2018-05-17T11:34:33.070Z,18.55
2018-05-17T11:35:38.578Z,18.67
2018-05-17T11:36:44.084Z,18.65
2018-05-17T11:37:49.603Z,18.77
2018-05-17T11:38:55.116Z,18.74
2018-05-17T11:40:00.641Z,18.90
2018-05-17T11:41:06.146Z,18.99
2018-05-17T11:42:11.671Z,19.08
2018-05-17T11:43:17.183Z,19.11
2018-05-17T11:44:22.699Z,19.17
2018-05-17T11:45:28.212Z,19.31
2018-05-17T11:46:33.736Z,19.35
2018-05-17T11:47:39.262Z,19.47
2018-05-17T11:48:44.766Z,19.43
2018-05-17T11:49:50.302Z,19.50
2018-05-17T11:50:55.796Z,19.53
2018-05-17T11:52:01.317Z,19.61
2018-05-17T11:53:06.835Z,19.65
2018-05-17T11:54:12.347Z,19.66
2018-05-17T11:55:17.860Z,19.73
2018-05-17T11:56:23.389Z,19.72
2018-05-17T11:57:28.902Z,19.83
2018-05-17T11:58:34.415Z,19.72
2018-05-17T11:59:39.925Z,19.75
2018-05-17T12:00:45.453Z,19.72
2018-05-17T12:01:51.060Z,19.70
2018-05-17T12:02:56.478Z,19.72
2018-05-17T12:04:01.995Z,19.76
2018-05-17T12:05:07.525Z,19.72
2018-05-17T12:06:13.028Z,19.83
2018-05-17T12:07:18.683Z,19.66
2018-05-17T12:08:24.075Z,19.68
2018-05-17T12:09:29.582Z,19.60
2018-05-17T12:10:35.094Z,19.69
2018-05-17T12:11:40.613Z,19.68
2018-05-17T12:12:46.126Z,19.68
2018-05-17T12:13:51.651Z,19.69
2018-05-17T12:14:57.169Z,19.75
2018-05-17T12:16:02.676Z,19.66
2018-05-17T12:17:08.201Z,19.73
2018-05-17T12:18:13.724Z,19.79
2018-05-17T12:19:19.233Z,19.76
2018-05-17T12:20:24.742Z,19.83
2018-05-17T12:21:30.262Z,19.78
2018-05-17T12:22:35.776Z,19.78
2018-05-17T12:23:41.305Z,19.83
2018-05-17T12:24:46.817Z,20.02
2018-05-17T12:25:52.335Z,20.02
2018-05-17T12:26:57.845Z,19.98
2018-05-17T12:28:03.364Z,19.97
2018-05-17T12:29:08.883Z,20.02
2018-05-17T12:30:14.416Z,20.09
2018-05-17T12:31:19.922Z,20.09
2018-05-17T12:32:25.448Z,20.02
2018-05-17T12:33:30.945Z,20.13
2018-05-17T12:34:36.480Z,20.16
2018-05-17T12:35:41.989Z,20.21
2018-05-17T12:36:47.496Z,20.21
2018-05-17T12:37:53.017Z,20.18
2018-05-17T12:38:58.531Z,20.12
2018-05-17T12:40:04.051Z,20.27
2018-05-17T12:41:09.566Z,20.21
2018-05-17T12:42:15.085Z,20.25
2018-05-17T12:43:20.598Z,20.21
2018-05-17T12:44:26.119Z,20.27
2018-05-17T12:45:31.645Z,20.21
2018-05-17T12:46:37.157Z,20.18
2018-05-17T12:47:42.671Z,20.24
2018-05-17T12:48:48.191Z,20.33
2018-05-17T12:49:53.712Z,20.18
2018-05-17T12:50:59.252Z,20.24
2018-05-17T12:52:04.735Z,20.31
2018-05-17T12:53:10.271Z,20.28
2018-05-17T12:54:15.783Z,20.18
2018-05-17T12:55:21.304Z,20.24
2018-05-17T12:56:26.804Z,20.23
2018-05-17T12:57:32.326Z,20.31
2018-05-17T12:58:37.925Z,20.43
2018-05-17T12:59:43.363Z,20.41
2018-05-17T13:00:48.875Z,20.33
2018-05-17T13:01:54.394Z,20.31
2018-05-17T13:02:59.916Z,20.28
2018-05-17T13:04:05.438Z,20.34
2018-05-17T13:05:10.989Z,20.33
2018-05-17T13:06:16.466Z,20.20
2018-05-17T13:07:21.985Z,20.24
2018-05-17T13:08:27.500Z,20.24
2018-05-17T13:09:33.016Z,20.34
2018-05-17T13:10:38.533Z,20.38
2018-05-17T13:11:44.068Z,20.54
2018-05-17T13:12:49.568Z,20.51
2018-05-17T13:13:55.077Z,20.47
2018-05-17T13:15:00.597Z,20.42
2018-05-17T13:16:06.120Z,20.43
2018-05-17T13:17:11.638Z,20.39
2018-05-17T13:18:17.159Z,20.34
2018-05-17T13:19:22.663Z,20.47
2018-05-17T13:20:28.188Z,20.39
2018-05-17T13:21:33.705Z,20.43
2018-05-17T13:22:39.224Z,20.50
2018-05-17T13:23:44.746Z,20.58
2018-05-17T13:24:50.323Z,20.54
2018-05-17T13:25:55.784Z,20.58
2018-05-17T13:27:01.288Z,20.58
2018-05-17T13:28:06.813Z,20.50
2018-05-17T13:29:12.327Z,20.61
2018-05-17T13:30:17.869Z,20.59
2018-05-17T13:31:23.356Z,20.56
2018-05-17T13:32:28.876Z,20.43
2018-05-17T13:33:34.391Z,20.53
2018-05-17T13:34:39.917Z,20.46
2018-05-17T13:35:45.430Z,20.49
2018-05-17T13:36:50.941Z,20.50
2018-05-17T13:37:56.466Z,20.49
2018-05-17T13:39:01.983Z,20.54
2018-05-17T13:40:07.497Z,20.53
2018-05-17T13:41:13.012Z,20.47
2018-05-17T13:42:18.534Z,20.49
2018-05-17T13:43:24.048Z,20.43
2018-05-17T13:44:29.579Z,20.42
2018-05-17T13:45:35.088Z,20.39
2018-05-17T13:46:40.602Z,20.41
2018-05-17T13:47:46.125Z,20.41
2018-05-17T13:48:51.656Z,20.41
2018-05-17T13:49:57.155Z,20.43
2018-05-17T13:51:02.669Z,20.43
2018-05-17T13:52:08.190Z,20.38
2018-05-17T13:53:13.709Z,20.39
2018-05-17T13:54:19.226Z,20.35
2018-05-17T13:55:24.739Z,20.38
2018-05-17T13:56:30.263Z,20.42
2018-05-17T13:57:35.775Z,20.35
2018-05-17T13:58:41.290Z,20.38
2018-05-17T13:59:46.809Z,20.35
2018-05-17T14:00:52.341Z,20.34
2018-05-17T14:01:57.854Z,20.38
2018-05-17T14:03:03.377Z,20.34